Time;durP1;ratioP1;P1;durP2;ratioP2;P2;SDS_P1;SDS_P2;PMS_P1;PMS_P2;Temp;Humidity;BMP_temperature;BMP_pressure;BME280_temperature;BME280_humidity;BME280_pressure;Samples;Min_cycle;Max_cycle;Signal;HPM_P1;HPM_P2
2023/11/19 00:00:36;;;;;;;14.33;8.70;;;6.20;99.90;;;;;;5036117;28;20254;-71
2023/11/19 00:03:04;;;;;;;15.10;8.13;;;6.20;99.90;;;;;;5068543;28;20528;-71
2023/11/19 00:05:31;;;;;;;18.13;10.00;;;6.20;99.90;;;;;;5069570;28;20189;-71
2023/11/19 00:07:58;;;;;;;23.77;11.10;;;6.20;99.90;;;;;;5062423;28;20209;-72
2023/11/19 00:10:25;;;;;;;18.53;9.93;;;6.20;99.90;;;;;;5038752;28;20256;-73
2023/11/19 00:12:53;;;;;;;22.87;11.40;;;6.20;99.90;;;;;;5061840;28;20204;-75
2023/11/19 00:15:20;;;;;;;21.37;11.37;;;6.20;99.90;;;;;;5054827;28;20254;-75
2023/11/19 00:17:48;;;;;;;27.43;13.27;;;6.20;99.90;;;;;;5065916;28;20192;-75
2023/11/19 00:20:17;;;;;;;23.73;12.07;;;6.20;99.90;;;;;;5045766;28;20255;-75
2023/11/19 00:22:47;;;;;;;23.70;11.50;;;6.20;99.90;;;;;;5067717;28;20197;-72
2023/11/19 00:25:15;;;;;;;22.93;11.90;;;6.20;99.90;;;;;;5060599;28;20225;-72
2023/11/19 00:27:44;;;;;;;26.10;13.03;;;6.10;99.90;;;;;;5064864;28;20248;-73
2023/11/19 00:30:14;;;;;;;22.40;11.97;;;6.10;99.90;;;;;;5048686;28;20220;-73
2023/11/19 00:32:41;;;;;;;25.50;12.07;;;6.10;99.90;;;;;;5068461;28;20192;-73
2023/11/19 00:35:10;;;;;;;27.93;13.53;;;6.00;99.90;;;;;;5070532;28;20633;-73
2023/11/19 00:37:37;;;;;;;26.70;11.87;;;6.00;99.90;;;;;;5067254;28;20195;-73
2023/11/19 00:40:05;;;;;;;25.13;12.43;;;6.00;99.90;;;;;;5069581;28;20223;-72
2023/11/19 00:42:32;;;;;;;29.77;12.80;;;6.00;99.90;;;;;;5064710;28;20201;-72
2023/11/19 00:45:01;;;;;;;25.57;12.60;;;5.90;99.90;;;;;;5062758;28;20203;-72
2023/11/19 00:47:31;;;;;;;27.20;12.93;;;5.90;99.90;;;;;;5062436;28;20217;-73
2023/11/19 00:49:58;;;;;;;21.40;11.50;;;5.90;99.90;;;;;;5048851;28;20195;-72
2023/11/19 00:52:25;;;;;;;23.10;10.77;;;5.80;99.90;;;;;;5061789;28;20205;-73
2023/11/19 00:54:53;;;;;;;19.63;11.00;;;5.80;99.90;;;;;;5067243;28;20733;-73
2023/11/19 00:57:20;;;;;;;19.57;10.90;;;5.90;99.90;;;;;;5069849;28;20202;-73
2023/11/19 00:59:47;;;;;;;15.00;8.87;;;5.80;99.90;;;;;;5053812;28;20281;-73
2023/11/19 01:02:15;;;;;;;14.13;7.90;;;5.80;99.90;;;;;;5055208;28;20298;-73
2023/11/19 01:04:43;;;;;;;10.77;6.97;;;5.80;99.90;;;;;;5042512;28;20227;-73
2023/11/19 01:07:12;;;;;;;14.17;8.00;;;5.80;99.90;;;;;;5073838;28;20195;-72
2023/11/19 01:09:39;;;;;;;9.80;6.27;;;5.80;99.90;;;;;;5070376;28;20238;-72
2023/11/19 01:12:08;;;;;;;19.90;10.10;;;5.80;99.90;;;;;;5049506;28;20226;-71
2023/11/19 01:14:36;;;;;;;16.97;9.30;;;5.80;99.90;;;;;;5069215;28;20191;-73
2023/11/19 01:17:04;;;;;;;15.40;8.73;;;5.80;99.90;;;;;;5069086;28;20564;-72
2023/11/19 01:19:31;;;;;;;16.37;9.03;;;5.80;99.90;;;;;;5072610;28;20599;-76
2023/11/19 01:22:00;;;;;;;14.13;8.57;;;5.80;99.90;;;;;;5049815;28;20199;-72
2023/11/19 01:24:28;;;;;;;15.33;8.37;;;5.80;99.90;;;;;;5071348;28;20249;-72
2023/11/19 01:26:57;;;;;;;12.60;7.00;;;5.90;99.90;;;;;;5073889;28;20295;-74
2023/11/19 01:29:24;;;;;;;13.07;7.83;;;5.80;99.90;;;;;;5050733;28;20220;-77
2023/11/19 01:31:52;;;;;;;14.83;8.37;;;5.90;99.90;;;;;;5056032;28;20253;-71
2023/11/19 01:34:20;;;;;;;13.73;8.70;;;5.90;99.90;;;;;;5047996;28;20563;-71
2023/11/19 01:36:48;;;;;;;16.63;8.40;;;5.90;99.90;;;;;;5073484;28;20280;-72
2023/11/19 01:39:17;;;;;;;12.63;7.40;;;5.90;99.90;;;;;;5059887;28;20229;-71
2023/11/19 01:41:44;;;;;;;13.17;7.63;;;5.90;99.90;;;;;;5042927;28;20331;-72
2023/11/19 01:44:13;;;;;;;13.27;7.80;;;5.90;99.90;;;;;;5049398;28;20875;-72
2023/11/19 01:46:43;;;;;;;11.70;7.87;;;5.90;99.90;;;;;;5069028;28;20197;-71
2023/11/19 01:49:11;;;;;;;11.40;6.70;;;5.90;99.90;;;;;;5069043;28;20215;-71
2023/11/19 01:51:40;;;;;;;16.23;8.67;;;5.80;99.90;;;;;;5071985;28;20274;-72
2023/11/19 01:54:08;;;;;;;14.27;8.20;;;5.80;99.90;;;;;;5072917;28;20255;-71
2023/11/19 01:56:35;;;;;;;13.97;8.40;;;5.80;99.90;;;;;;5040888;28;20203;-71
2023/11/19 01:59:03;;;;;;;16.27;9.17;;;5.90;99.90;;;;;;5049561;28;20197;-71
2023/11/19 02:01:32;;;;;;;20.33;10.80;;;5.90;99.90;;;;;;5049648;28;20201;-71
2023/11/19 02:03:59;;;;;;;18.37;10.30;;;5.90;99.90;;;;;;5072299;28;20227;-71
2023/11/19 02:06:28;;;;;;;15.53;9.10;;;5.90;99.90;;;;;;5069315;28;20197;-72
2023/11/19 02:08:55;;;;;;;13.37;8.07;;;5.80;99.90;;;;;;5069819;28;20549;-73
2023/11/19 02:11:22;;;;;;;11.33;7.37;;;5.80;99.90;;;;;;5053912;28;20548;-72
2023/11/19 02:13:51;;;;;;;14.83;8.87;;;5.80;99.90;;;;;;5050997;28;20201;-73
2023/11/19 02:16:18;;;;;;;16.90;9.30;;;5.80;99.90;;;;;;5054810;28;20204;-73
2023/11/19 02:18:45;;;;;;;19.53;10.50;;;5.80;99.90;;;;;;5048520;28;20573;-73
2023/11/19 02:21:14;;;;;;;19.87;10.30;;;5.80;99.90;;;;;;5058440;28;20204;-73
2023/11/19 02:23:42;;;;;;;17.17;9.53;;;5.90;99.90;;;;;;5050313;28;20292;-73
2023/11/19 02:26:15;;;;;;;22.47;11.17;;;5.90;99.90;;;;;;5072221;28;20681;-72
2023/11/19 02:28:44;;;;;;;18.33;9.60;;;5.90;99.90;;;;;;5052378;28;20313;-71
2023/11/19 02:31:11;;;;;;;16.53;8.67;;;5.90;99.90;;;;;;5051232;28;20200;-71
2023/11/19 02:33:39;;;;;;;16.80;10.00;;;5.90;99.90;;;;;;5039639;28;21270;-71
2023/11/19 02:36:07;;;;;;;13.70;7.90;;;5.90;99.90;;;;;;5069277;28;20198;-72
2023/11/19 02:38:35;;;;;;;20.80;11.03;;;5.90;99.90;;;;;;5045600;28;20220;-71
2023/11/19 02:41:05;;;;;;;18.20;11.00;;;5.90;99.90;;;;;;5046358;28;20218;-71
2023/11/19 02:43:33;;;;;;;18.80;10.43;;;5.90;99.90;;;;;;5053343;28;20208;-71
2023/11/19 02:46:03;;;;;;;19.33;10.97;;;5.90;99.90;;;;;;5070582;28;20193;-71
2023/11/19 02:48:31;;;;;;;16.13;9.53;;;5.90;99.90;;;;;;5070746;28;20209;-71
2023/11/19 02:50:58;;;;;;;17.17;9.20;;;5.80;99.90;;;;;;5062629;28;20843;-71
2023/11/19 02:53:28;;;;;;;11.90;7.30;;;5.80;99.90;;;;;;5054086;28;20296;-71
2023/11/19 02:56:01;;;;;;;12.50;6.90;;;5.70;99.90;;;;;;5071644;28;20196;-70
2023/11/19 02:58:28;;;;;;;14.40;8.50;;;5.70;99.90;;;;;;5053315;28;20265;-73
2023/11/19 03:00:59;;;;;;;19.10;10.13;;;5.60;99.90;;;;;;5071692;28;20299;-74
2023/11/19 03:03:37;;;;;;;15.00;9.10;;;5.70;99.90;;;;;;5072558;28;20199;-73
2023/11/19 03:06:06;;;;;;;18.33;9.93;;;5.70;99.90;;;;;;5053230;28;20201;-73
2023/11/19 03:08:33;;;;;;;14.77;9.20;;;5.70;99.90;;;;;;5071563;28;20219;-74
2023/11/19 03:11:00;;;;;;;18.83;10.67;;;5.70;99.90;;;;;;5038970;28;20262;-73
2023/11/19 03:13:27;;;;;;;16.93;9.37;;;5.70;99.90;;;;;;5071717;28;20201;-73
2023/11/19 03:15:54;;;;;;;16.00;9.00;;;5.70;99.90;;;;;;5071766;28;20207;-72
2023/11/19 03:18:21;;;;;;;15.63;8.60;;;5.70;99.90;;;;;;5063473;28;20685;-76
2023/11/19 03:20:50;;;;;;;14.70;8.63;;;5.60;99.90;;;;;;5050121;28;20662;-78
2023/11/19 03:23:18;;;;;;;17.00;9.80;;;5.70;99.90;;;;;;5072197;28;20219;-76
2023/11/19 03:25:45;;;;;;;16.60;9.30;;;5.70;99.90;;;;;;5043419;28;20204;-76
2023/11/19 03:28:12;;;;;;;16.93;9.63;;;5.60;99.90;;;;;;5065974;28;22485;-76
2023/11/19 03:30:39;;;;;;;24.00;11.80;;;5.60;99.90;;;;;;5042023;28;20196;-77
2023/11/19 03:33:06;;;;;;;23.53;12.17;;;5.60;99.90;;;;;;5072218;28;20663;-77
2023/11/19 03:35:34;;;;;;;21.90;11.13;;;5.60;99.90;;;;;;5065888;28;20686;-78
2023/11/19 03:38:02;;;;;;;17.90;10.10;;;5.60;99.90;;;;;;5053335;28;20306;-78
2023/11/19 03:40:29;;;;;;;16.27;9.10;;;5.60;99.90;;;;;;5070652;28;20198;-75
2023/11/19 03:42:58;;;;;;;17.77;9.50;;;5.50;99.90;;;;;;5053538;28;20203;-75
2023/11/19 03:45:25;;;;;;;17.67;9.57;;;5.50;99.90;;;;;;5045981;28;20590;-75
2023/11/19 03:47:52;;;;;;;15.80;8.77;;;5.50;99.90;;;;;;5070981;28;20209;-76
2023/11/19 03:50:20;;;;;;;23.43;11.33;;;5.50;99.90;;;;;;5070192;28;20211;-75
2023/11/19 03:52:48;;;;;;;17.47;9.07;;;5.50;99.90;;;;;;5067641;28;20909;-76
2023/11/19 03:55:16;;;;;;;22.60;10.67;;;5.50;99.90;;;;;;5049947;28;20551;-75
2023/11/19 03:57:44;;;;;;;28.63;13.57;;;5.50;99.90;;;;;;5050250;28;20203;-71
2023/11/19 04:00:14;;;;;;;22.00;12.00;;;5.50;99.90;;;;;;5059488;28;20646;-75
2023/11/19 04:02:41;;;;;;;21.70;11.20;;;5.40;99.90;;;;;;5040496;28;20289;-75
2023/11/19 04:05:09;;;;;;;19.57;10.87;;;5.40;99.90;;;;;;5052224;28;20665;-75
2023/11/19 04:07:37;;;;;;;24.37;11.93;;;5.30;99.90;;;;;;5057380;28;20200;-75
2023/11/19 04:10:04;;;;;;;23.30;12.53;;;5.30;99.90;;;;;;5043188;28;20261;-75
2023/11/19 04:12:33;;;;;;;18.67;10.77;;;5.30;99.90;;;;;;5068810;28;20214;-74
2023/11/19 04:15:00;;;;;;;19.50;10.40;;;5.20;99.90;;;;;;5065942;28;20547;-74
2023/11/19 04:17:27;;;;;;;19.13;10.30;;;5.20;99.90;;;;;;5060964;28;20202;-74
2023/11/19 04:19:54;;;;;;;17.73;10.43;;;5.20;99.90;;;;;;5044629;28;20797;-73
2023/11/19 04:22:22;;;;;;;21.10;11.17;;;5.20;99.90;;;;;;5044795;28;20535;-74
2023/11/19 04:24:49;;;;;;;17.53;10.37;;;5.10;99.90;;;;;;5061613;28;20256;-74
2023/11/19 04:27:16;;;;;;;17.93;9.83;;;5.20;99.90;;;;;;5049814;28;20204;-75
2023/11/19 04:29:45;;;;;;;14.77;8.80;;;5.10;99.90;;;;;;5065351;28;20251;-74
2023/11/19 04:32:12;;;;;;;20.73;10.60;;;5.10;99.90;;;;;;5067877;28;20253;-75
2023/11/19 04:34:40;;;;;;;18.67;10.37;;;5.00;99.90;;;;;;5070566;28;20195;-75
2023/11/19 04:37:07;;;;;;;18.53;10.00;;;5.00;99.90;;;;;;5065670;28;20638;-75
2023/11/19 04:39:34;;;;;;;16.57;10.00;;;5.00;99.90;;;;;;5050144;28;20238;-75
2023/11/19 04:42:01;;;;;;;18.83;10.73;;;5.00;99.90;;;;;;5073637;28;20194;-76
2023/11/19 04:44:29;;;;;;;15.97;9.17;;;5.00;99.90;;;;;;5058709;28;20263;-75
2023/11/19 04:46:58;;;;;;;17.47;9.63;;;5.00;99.90;;;;;;5055058;28;20681;-75
2023/11/19 04:49:26;;;;;;;19.43;10.10;;;5.00;99.90;;;;;;5042259;28;20229;-75
2023/11/19 04:51:54;;;;;;;16.60;9.20;;;5.00;99.90;;;;;;5061753;28;20197;-76
2023/11/19 04:54:21;;;;;;;19.77;9.63;;;5.00;99.90;;;;;;5073474;28;20226;-74
2023/11/19 04:56:48;;;;;;;15.40;9.00;;;5.00;99.90;;;;;;5071209;28;20206;-75
2023/11/19 04:59:15;;;;;;;15.87;9.13;;;4.90;99.90;;;;;;5049244;28;20207;-75
2023/11/19 05:01:47;;;;;;;14.33;8.97;;;4.90;99.90;;;;;;5069467;28;20194;-75
2023/11/19 05:04:15;;;;;;;18.83;9.53;;;5.00;99.90;;;;;;5065443;28;20210;-75
2023/11/19 05:06:43;;;;;;;16.57;9.13;;;5.00;99.90;;;;;;5043678;28;20210;-73
2023/11/19 05:09:12;;;;;;;17.43;9.40;;;5.00;99.90;;;;;;5047834;28;20590;-73
2023/11/19 05:11:40;;;;;;;19.97;10.00;;;4.90;99.90;;;;;;5067944;28;20633;-77
2023/11/19 05:14:09;;;;;;;15.77;8.80;;;4.90;99.90;;;;;;5061949;28;20285;-77
2023/11/19 05:16:36;;;;;;;16.80;9.37;;;4.90;99.90;;;;;;5047834;28;20195;-78
2023/11/19 05:19:03;;;;;;;16.60;9.23;;;4.90;99.90;;;;;;5052233;28;20214;-75
2023/11/19 05:21:32;;;;;;;14.77;8.33;;;4.90;99.90;;;;;;5066676;28;20655;-76
2023/11/19 05:23:59;;;;;;;17.00;9.07;;;4.90;99.90;;;;;;5065869;28;20245;-75
2023/11/19 05:26:26;;;;;;;14.73;8.13;;;4.90;99.90;;;;;;5072599;28;20198;-75
2023/11/19 05:28:53;;;;;;;11.70;7.37;;;5.00;99.90;;;;;;5066076;28;20322;-75
2023/11/19 05:31:20;;;;;;;11.37;7.17;;;4.90;99.90;;;;;;5050190;28;20200;-75
2023/11/19 05:33:48;;;;;;;13.57;7.30;;;4.90;99.90;;;;;;5069666;28;20196;-75
2023/11/19 05:36:15;;;;;;;12.27;7.20;;;4.90;99.90;;;;;;5063922;28;20566;-75
2023/11/19 05:38:44;;;;;;;11.63;7.00;;;4.90;99.90;;;;;;5021313;28;1313617;-74
2023/11/19 05:41:11;;;;;;;10.90;7.20;;;4.90;99.90;;;;;;5073009;28;20196;-74
2023/11/19 05:43:40;;;;;;;12.53;7.83;;;4.90;99.90;;;;;;5072388;28;20202;-75
2023/11/19 05:46:07;;;;;;;9.73;5.83;;;5.00;99.90;;;;;;5052467;28;20200;-72
2023/11/19 05:48:35;;;;;;;12.10;7.30;;;4.90;99.90;;;;;;5067746;28;20199;-72
2023/11/19 05:51:03;;;;;;;11.73;7.07;;;4.90;99.90;;;;;;5050936;28;20285;-74
2023/11/19 05:53:30;;;;;;;10.00;6.70;;;4.90;99.90;;;;;;5073115;28;20199;-76
2023/11/19 05:56:02;;;;;;;11.57;6.93;;;4.90;99.90;;;;;;5065359;28;20641;-74
2023/11/19 05:58:32;;;;;;;9.13;6.43;;;4.90;99.90;;;;;;5060252;28;20635;-72
2023/11/19 06:01:01;;;;;;;10.83;6.57;;;4.90;99.90;;;;;;5050289;28;20216;-72
2023/11/19 06:03:28;;;;;;;11.70;7.37;;;4.90;99.90;;;;;;5050081;28;20251;-72
2023/11/19 06:05:55;;;;;;;10.77;6.33;;;4.90;99.90;;;;;;5062183;28;20232;-69
2023/11/19 06:08:22;;;;;;;12.47;6.70;;;4.80;99.90;;;;;;5072347;28;20202;-74
2023/11/19 06:10:50;;;;;;;9.83;6.67;;;4.80;99.90;;;;;;5069821;28;20210;-76
2023/11/19 06:13:19;;;;;;;11.90;5.83;;;4.80;99.90;;;;;;5067237;28;20206;-74
2023/11/19 06:15:46;;;;;;;9.97;5.73;;;4.80;99.90;;;;;;5067337;28;20224;-74
2023/11/19 06:18:14;;;;;;;9.53;5.93;;;4.80;99.90;;;;;;5071090;28;20297;-76
2023/11/19 06:20:41;;;;;;;12.50;7.27;;;4.80;99.90;;;;;;5064010;28;20567;-75
2023/11/19 06:23:08;;;;;;;15.30;8.90;;;4.80;99.90;;;;;;5067124;28;20202;-75
2023/11/19 06:25:36;;;;;;;13.67;8.10;;;4.80;99.90;;;;;;5064629;28;20191;-73
2023/11/19 06:28:03;;;;;;;14.03;8.23;;;4.80;99.90;;;;;;5059821;28;20317;-74
2023/11/19 06:30:32;;;;;;;15.40;8.93;;;4.80;99.90;;;;;;5039563;28;20227;-72
2023/11/19 06:32:59;;;;;;;14.43;8.13;;;4.80;99.90;;;;;;5048631;28;20206;-73
2023/11/19 06:35:26;;;;;;;14.07;8.23;;;4.70;99.90;;;;;;5048469;28;20277;-74
2023/11/19 06:37:54;;;;;;;11.90;7.40;;;4.70;99.90;;;;;;5060292;28;20299;-72
2023/11/19 06:40:23;;;;;;;13.80;8.43;;;4.70;99.90;;;;;;5049222;28;20196;-72
2023/11/19 06:42:52;;;;;;;13.70;8.47;;;4.70;99.90;;;;;;5037561;28;20207;-74
2023/11/19 06:45:19;;;;;;;14.33;8.77;;;4.70;99.90;;;;;;5036774;28;20199;-74
2023/11/19 06:47:47;;;;;;;14.47;8.10;;;4.70;99.90;;;;;;5064946;28;20195;-74
2023/11/19 06:50:15;;;;;;;14.27;8.63;;;4.70;99.90;;;;;;5070805;28;20202;-74
2023/11/19 06:52:42;;;;;;;11.93;7.60;;;4.70;99.90;;;;;;5066236;28;20194;-74
2023/11/19 06:55:09;;;;;;;11.07;7.33;;;4.70;99.90;;;;;;5066661;28;20588;-74
2023/11/19 06:57:36;;;;;;;8.80;5.90;;;4.70;99.90;;;;;;5066681;28;20187;-72
2023/11/19 07:00:05;;;;;;;10.30;6.13;;;4.70;99.90;;;;;;5053526;28;20191;-71
2023/11/19 07:02:32;;;;;;;8.93;5.87;;;4.70;99.90;;;;;;5038046;28;20637;-72
2023/11/19 07:05:01;;;;;;;12.43;7.00;;;4.70;99.90;;;;;;5065844;28;20222;-71
2023/11/19 07:07:28;;;;;;;11.17;6.43;;;4.70;99.90;;;;;;5066387;28;20270;-72
2023/11/19 07:09:55;;;;;;;14.33;8.07;;;4.70;99.90;;;;;;5070229;28;20211;-72
2023/11/19 07:12:22;;;;;;;18.47;9.97;;;4.80;99.90;;;;;;5071595;28;20624;-72
2023/11/19 07:14:49;;;;;;;16.40;9.20;;;4.80;99.90;;;;;;5060361;28;20256;-72
2023/11/19 07:17:17;;;;;;;14.60;8.87;;;4.80;99.90;;;;;;5064728;28;20286;-73
2023/11/19 07:19:44;;;;;;;16.43;9.50;;;4.70;99.90;;;;;;5070020;28;20222;-72
2023/11/19 07:22:12;;;;;;;13.57;8.30;;;4.70;99.90;;;;;;5064526;28;20198;-72
2023/11/19 07:24:40;;;;;;;15.90;8.97;;;4.70;99.90;;;;;;5058670;28;20202;-76
2023/11/19 07:27:08;;;;;;;13.50;7.50;;;4.70;99.90;;;;;;5068373;28;20202;-75
2023/11/19 07:29:35;;;;;;;12.77;8.17;;;4.80;99.90;;;;;;5066726;28;20236;-76
2023/11/19 07:32:03;;;;;;;11.67;6.73;;;4.80;99.90;;;;;;5052268;28;20198;-76
2023/11/19 07:34:29;;;;;;;11.33;7.17;;;4.80;99.90;;;;;;5056483;28;20243;-77
2023/11/19 07:36:59;;;;;;;9.67;6.63;;;4.80;99.90;;;;;;5071447;28;20193;-73
2023/11/19 07:39:27;;;;;;;10.73;6.93;;;4.80;99.90;;;;;;5070841;28;20238;-74
2023/11/19 07:41:54;;;;;;;13.63;7.43;;;4.80;99.90;;;;;;5060229;28;20197;-78
2023/11/19 07:44:22;;;;;;;10.83;6.90;;;4.90;99.90;;;;;;5063748;28;20285;-77
2023/11/19 07:46:49;;;;;;;10.10;5.83;;;4.80;99.90;;;;;;5039462;28;20285;-78
2023/11/19 07:49:16;;;;;;;7.93;5.17;;;4.80;99.90;;;;;;5069260;28;20198;-76
2023/11/19 07:51:43;;;;;;;8.33;5.33;;;4.80;99.90;;;;;;5057335;28;20226;-77
2023/11/19 07:54:10;;;;;;;8.83;6.07;;;4.80;99.90;;;;;;5071298;28;20191;-75
2023/11/19 07:56:38;;;;;;;9.20;6.17;;;4.90;99.90;;;;;;5065660;28;20195;-76
2023/11/19 07:59:06;;;;;;;10.13;6.53;;;4.90;99.90;;;;;;5044100;28;20203;-76
2023/11/19 08:01:33;;;;;;;12.97;7.13;;;4.90;99.90;;;;;;5050388;28;20230;-74
2023/11/19 08:04:01;;;;;;;12.97;7.00;;;4.90;99.90;;;;;;5067157;28;20202;-73
2023/11/19 08:06:28;;;;;;;12.33;7.23;;;4.90;99.90;;;;;;5045683;28;20203;-75
2023/11/19 08:08:56;;;;;;;11.73;7.17;;;4.90;99.90;;;;;;5060469;28;20263;-76
2023/11/19 08:11:23;;;;;;;12.30;7.37;;;4.90;99.90;;;;;;5065895;28;20241;-76
2023/11/19 08:13:54;;;;;;;16.40;8.23;;;4.90;99.90;;;;;;5052506;28;20204;-78
2023/11/19 08:16:21;;;;;;;14.33;8.70;;;4.90;99.90;;;;;;5058814;28;20191;-79
2023/11/19 08:18:48;;;;;;;16.53;8.90;;;4.90;99.90;;;;;;5042741;28;20213;-79
2023/11/19 08:21:15;;;;;;;16.30;9.13;;;5.00;99.90;;;;;;5068362;28;20271;-76
2023/11/19 08:23:42;;;;;;;13.27;8.43;;;5.00;99.90;;;;;;5041639;28;20207;-74
2023/11/19 08:26:09;;;;;;;15.00;7.97;;;5.00;99.90;;;;;;5071149;28;20190;-72
2023/11/19 08:28:36;;;;;;;17.70;9.33;;;5.10;99.90;;;;;;5041167;28;20252;-75
2023/11/19 08:31:05;;;;;;;17.93;9.87;;;5.10;99.90;;;;;;5063394;28;20211;-75
2023/11/19 08:33:33;;;;;;;17.50;9.83;;;5.10;99.90;;;;;;5063490;28;20198;-76
2023/11/19 08:36:00;;;;;;;16.83;10.03;;;5.00;99.90;;;;;;5071162;28;20248;-79
2023/11/19 08:38:27;;;;;;;16.20;9.27;;;5.00;99.90;;;;;;5050651;28;20300;-76
2023/11/19 08:40:59;;;;;;;14.30;8.97;;;4.90;99.90;;;;;;5070815;28;20204;-77
2023/11/19 08:43:26;;;;;;;11.93;7.17;;;4.80;99.90;;;;;;5070030;28;20684;-78
2023/11/19 08:45:53;;;;;;;13.80;8.63;;;4.80;99.90;;;;;;5066767;28;20209;-75
2023/11/19 08:48:22;;;;;;;14.73;8.03;;;4.80;99.90;;;;;;5060830;28;20194;-78
2023/11/19 08:50:49;;;;;;;14.00;8.30;;;4.70;99.90;;;;;;5063151;28;20197;-75
2023/11/19 08:53:16;;;;;;;14.00;8.57;;;4.70;99.90;;;;;;5058783;28;20284;-77
2023/11/19 08:55:43;;;;;;;12.77;7.67;;;4.70;99.90;;;;;;5061897;28;20199;-72
2023/11/19 08:58:10;;;;;;;12.47;7.43;;;4.60;99.90;;;;;;5051349;28;20201;-72
2023/11/19 09:00:39;;;;;;;14.30;8.23;;;4.70;99.90;;;;;;5035015;28;20409;-76
2023/11/19 09:03:06;;;;;;;12.77;7.80;;;4.70;99.90;;;;;;5044274;28;20199;-73
2023/11/19 09:05:38;;;;;;;14.90;7.83;;;4.70;99.90;;;;;;5066084;28;20313;-75
2023/11/19 09:08:05;;;;;;;15.23;8.73;;;4.70;99.90;;;;;;5050866;28;20783;-75
2023/11/19 09:10:33;;;;;;;12.07;7.20;;;4.80;99.90;;;;;;5040976;28;20229;-74
2023/11/19 09:13:00;;;;;;;12.60;7.43;;;4.80;99.90;;;;;;5070091;28;20267;-74
2023/11/19 09:15:27;;;;;;;14.63;8.67;;;4.80;99.90;;;;;;5070392;28;20611;-74
2023/11/19 09:17:54;;;;;;;17.93;9.40;;;4.90;99.90;;;;;;5046051;28;20229;-73
2023/11/19 09:20:21;;;;;;;15.47;8.60;;;4.90;99.90;;;;;;5069355;28;20195;-73
2023/11/19 09:22:51;;;;;;;13.73;8.27;;;4.80;99.90;;;;;;5066508;28;20586;-73
2023/11/19 09:25:18;;;;;;;14.87;8.10;;;4.90;99.90;;;;;;5066855;28;20199;-71
2023/11/19 09:27:45;;;;;;;13.37;8.00;;;4.90;99.90;;;;;;5067887;28;20190;-72
2023/11/19 09:30:13;;;;;;;17.57;9.33;;;5.00;99.90;;;;;;5048491;28;20828;-76
2023/11/19 09:32:40;;;;;;;20.63;10.77;;;5.00;99.90;;;;;;5055794;28;20546;-72
2023/11/19 09:35:08;;;;;;;19.53;10.00;;;4.90;99.90;;;;;;5050736;28;20554;-74
2023/11/19 09:37:35;;;;;;;17.97;9.57;;;5.00;99.90;;;;;;5051862;28;20209;-71
2023/11/19 09:40:04;;;;;;;16.57;9.53;;;5.00;99.90;;;;;;5070147;28;20195;-72
2023/11/19 09:42:39;;;;;;;14.00;8.33;;;4.90;99.90;;;;;;5051246;28;20224;-77
2023/11/19 09:45:13;;;;;;;17.17;10.33;;;4.90;99.90;;;;;;5072800;28;20190;-73
2023/11/19 09:47:41;;;;;;;17.27;10.70;;;4.90;99.90;;;;;;5070795;28;20189;-75
2023/11/19 09:50:09;;;;;;;17.27;10.33;;;4.90;99.90;;;;;;5071444;28;20281;-73
2023/11/19 09:52:38;;;;;;;18.97;10.37;;;4.90;99.90;;;;;;5054341;28;20199;-75
2023/11/19 09:55:07;;;;;;;19.40;10.97;;;4.90;99.90;;;;;;5047947;28;20632;-73
2023/11/19 09:57:37;;;;;;;21.30;11.63;;;4.80;99.90;;;;;;5056178;28;20569;-73
2023/11/19 10:00:07;;;;;;;23.40;10.13;;;4.80;99.90;;;;;;5049443;28;20252;-74
2023/11/19 10:02:36;;;;;;;19.57;11.40;;;4.70;99.90;;;;;;5047941;28;20205;-74
2023/11/19 10:05:07;;;;;;;19.20;11.47;;;4.80;99.90;;;;;;5070093;28;20205;-75
2023/11/19 10:07:37;;;;;;;21.67;12.73;;;4.80;99.90;;;;;;5049980;28;20262;-79
2023/11/19 10:10:08;;;;;;;22.53;12.67;;;4.70;99.90;;;;;;5052337;28;20217;-75
2023/11/19 10:12:35;;;;;;;22.53;12.20;;;4.70;99.90;;;;;;5069144;28;20192;-75
2023/11/19 10:15:03;;;;;;;19.90;11.43;;;4.60;99.90;;;;;;5062599;28;20652;-77
2023/11/19 10:17:33;;;;;;;20.17;11.40;;;4.60;99.90;;;;;;5046369;28;20208;-75
2023/11/19 10:20:00;;;;;;;20.37;12.17;;;4.60;99.90;;;;;;5055986;28;20206;-74
2023/11/19 10:22:28;;;;;;;21.93;12.60;;;4.60;99.90;;;;;;5051709;28;21923;-76
2023/11/19 10:24:55;;;;;;;23.67;13.83;;;4.70;99.90;;;;;;5067932;28;20197;-77
2023/11/19 10:27:26;;;;;;;20.97;12.37;;;4.70;99.90;;;;;;5068065;28;20382;-77
2023/11/19 10:29:53;;;;;;;21.10;12.40;;;4.60;99.90;;;;;;5067725;28;20745;-77
2023/11/19 10:32:20;;;;;;;22.53;11.60;;;4.60;99.90;;;;;;5056784;28;20224;-75
2023/11/19 10:34:48;;;;;;;19.03;10.87;;;4.70;99.90;;;;;;5050941;28;20201;-76
2023/11/19 10:37:31;;;;;;;22.30;12.33;;;4.70;99.90;;;;;;5051918;28;20243;-77
2023/11/19 10:39:58;;;;;;;26.43;14.03;;;4.70;99.90;;;;;;5044705;28;20209;-77
2023/11/19 10:42:27;;;;;;;24.77;12.93;;;4.70;99.90;;;;;;5073438;28;20182;-76
2023/11/19 10:44:54;;;;;;;23.53;11.93;;;4.70;99.90;;;;;;5047297;28;20197;-77
2023/11/19 10:47:23;;;;;;;31.73;15.27;;;4.80;99.90;;;;;;5042058;28;20202;-76
2023/11/19 10:49:50;;;;;;;27.87;14.63;;;4.80;99.90;;;;;;5060764;28;20582;-77
2023/11/19 10:52:20;;;;;;;27.60;13.57;;;4.80;99.90;;;;;;5049747;28;20217;-77
2023/11/19 10:54:50;;;;;;;28.77;14.60;;;4.80;99.90;;;;;;5051254;28;20198;-76
2023/11/19 10:57:22;;;;;;;28.60;14.03;;;4.80;99.90;;;;;;5041923;28;20657;-77
2023/11/19 10:59:56;;;;;;;24.03;14.20;;;4.80;99.90;;;;;;5046020;28;20200;-77
2023/11/19 11:02:28;;;;;;;28.87;14.70;;;4.80;99.90;;;;;;5067087;28;20577;-76
2023/11/19 11:04:56;;;;;;;30.00;15.87;;;4.80;99.90;;;;;;5061603;28;20202;-76
2023/11/19 11:07:25;;;;;;;29.83;16.03;;;4.80;99.90;;;;;;5046851;28;20210;-76
2023/11/19 11:09:53;;;;;;;27.53;14.67;;;4.90;99.90;;;;;;5049241;28;20661;-76
2023/11/19 11:12:23;;;;;;;29.17;15.00;;;4.80;99.90;;;;;;5063395;28;20213;-76
2023/11/19 11:14:54;;;;;;;27.10;14.63;;;4.90;99.90;;;;;;5064679;28;20263;-77
2023/11/19 11:17:25;;;;;;;36.37;16.43;;;4.90;99.90;;;;;;5048712;28;20569;-77
2023/11/19 11:19:52;;;;;;;34.73;16.73;;;4.90;99.90;;;;;;5058106;28;20232;-76
2023/11/19 11:22:21;;;;;;;35.07;17.33;;;4.90;99.90;;;;;;5042066;28;20196;-76
2023/11/19 11:25:06;;;;;;;28.70;14.23;;;4.90;99.90;;;;;;5066076;28;20201;-77
2023/11/19 11:27:59;;;;;;;31.90;16.67;;;4.90;99.90;;;;;;5045784;28;20621;-78
2023/11/19 11:30:40;;;;;;;32.50;14.93;;;4.90;99.90;;;;;;5047295;28;20284;-77
2023/11/19 11:33:26;;;;;;;29.50;15.40;;;4.80;99.90;;;;;;5049576;28;20277;-76
2023/11/19 11:36:02;;;;;;;31.80;15.57;;;4.90;99.90;;;;;;5065668;28;20241;-78
2023/11/19 11:38:31;;;;;;;34.87;16.30;;;4.90;99.90;;;;;;5065702;28;20263;-76
2023/11/19 11:41:19;;;;;;;34.50;15.50;;;4.90;99.90;;;;;;5061350;28;20202;-77
2023/11/19 11:43:47;;;;;;;35.27;17.77;;;4.90;99.90;;;;;;5053380;28;20243;-77
2023/11/19 11:46:51;;;;;;;32.67;16.17;;;4.90;99.90;;;;;;5053581;28;20259;-77
2023/11/19 11:49:31;;;;;;;37.47;16.63;;;5.00;99.90;;;;;;5050856;28;20198;-76
2023/11/19 11:52:03;;;;;;;40.07;18.57;;;5.00;99.90;;;;;;5063557;28;20276;-78
2023/11/19 11:54:31;;;;;;;37.33;18.77;;;5.00;99.90;;;;;;5065465;28;20198;-77
2023/11/19 11:57:08;;;;;;;34.83;17.77;;;5.00;99.90;;;;;;5069069;28;20222;-77
2023/11/19 11:59:44;;;;;;;35.00;16.67;;;4.90;99.90;;;;;;5062535;28;20194;-77
2023/11/19 12:02:12;;;;;;;34.47;16.93;;;4.90;99.90;;;;;;5048813;28;20229;-78
2023/11/19 12:04:42;;;;;;;36.80;18.50;;;4.90;99.90;;;;;;5067981;28;20227;-77
2023/11/19 12:07:13;;;;;;;37.53;17.40;;;4.90;99.90;;;;;;5051638;28;20255;-77
2023/11/19 12:09:42;;;;;;;40.90;18.77;;;4.90;99.90;;;;;;5063441;28;20200;-77
2023/11/19 12:12:20;;;;;;;40.00;19.00;;;4.90;99.90;;;;;;5063023;28;20734;-77
2023/11/19 12:15:10;;;;;;;41.43;19.30;;;4.90;99.90;;;;;;5051242;28;20198;-76
2023/11/19 12:17:49;;;;;;;39.77;18.80;;;4.90;99.90;;;;;;5056782;28;20194;-77
2023/11/19 12:20:18;;;;;;;35.97;17.73;;;4.90;99.90;;;;;;5066295;28;20205;-77
2023/11/19 12:22:49;;;;;;;34.53;16.70;;;4.90;99.90;;;;;;5068240;28;20557;-77
2023/11/19 12:25:17;;;;;;;38.83;18.30;;;4.90;99.90;;;;;;5067452;28;20223;-76
2023/11/19 12:27:46;;;;;;;41.87;19.83;;;4.80;99.90;;;;;;5051799;28;20247;-76
2023/11/19 12:30:13;;;;;;;40.57;18.00;;;4.80;99.90;;;;;;5051172;28;20616;-76
2023/11/19 12:32:41;;;;;;;36.77;18.00;;;4.80;99.90;;;;;;5069372;28;20665;-76
2023/11/19 12:35:11;;;;;;;37.50;17.80;;;4.80;99.90;;;;;;5066727;28;20603;-77
2023/11/19 12:37:47;;;;;;;44.27;20.73;;;4.80;99.90;;;;;;5067890;28;20199;-76
2023/11/19 12:40:17;;;;;;;45.13;20.80;;;4.90;99.90;;;;;;5066770;28;20596;-77
2023/11/19 12:42:44;;;;;;;41.50;19.23;;;4.90;99.90;;;;;;5067433;28;20725;-76
2023/11/19 12:45:11;;;;;;;39.70;18.50;;;4.90;99.90;;;;;;5063540;28;20190;-77
2023/11/19 12:47:40;;;;;;;41.77;19.03;;;4.90;99.90;;;;;;5067172;28;20201;-77
2023/11/19 12:50:08;;;;;;;45.83;20.63;;;4.90;99.90;;;;;;5059878;28;20282;-76